createdAt,value
2017-02-21T00:00:04.354Z,929.14
2017-02-21T00:00:22.334Z,929.16
2017-02-21T00:00:42.085Z,929.12
2017-02-21T00:01:01.231Z,929.18
2017-02-21T00:01:20.448Z,929.12
2017-02-21T00:01:40.170Z,929.13
2017-02-21T00:01:59.932Z,929.08
2017-02-21T00:02:19.687Z,929.12
2017-02-21T00:02:39.417Z,929.15
2017-02-21T00:02:59.138Z,929.13
2017-02-21T00:03:19.045Z,929.16
2017-02-21T00:03:38.787Z,929.18
2017-02-21T00:03:57.941Z,929.09
2017-02-21T00:04:17.669Z,929.11
2017-02-21T00:04:37.446Z,929.03
2017-02-21T00:04:57.277Z,929.11
2017-02-21T00:05:16.465Z,929.16
2017-02-21T00:05:36.260Z,929.08
2017-02-21T00:05:55.976Z,929.14
2017-02-21T00:06:15.706Z,929.16
2017-02-21T00:06:35.469Z,929.14
2017-02-21T00:06:55.194Z,929.16
2017-02-21T00:07:14.381Z,929.12
2017-02-21T00:07:34.141Z,929.1
2017-02-21T00:07:53.288Z,929.15
2017-02-21T00:08:13.052Z,929.1
2017-02-21T00:08:32.805Z,929.18
2017-02-21T00:08:52.840Z,929.14
2017-02-21T00:09:12.590Z,929.05
2017-02-21T00:09:32.361Z,929.03
2017-02-21T00:09:52.163Z,929.11
2017-02-21T00:10:11.965Z,929.12
2017-02-21T00:10:31.687Z,929.07
2017-02-21T00:10:50.829Z,929.09
2017-02-21T00:11:10.561Z,929.07
2017-02-21T00:11:29.721Z,929.1
2017-02-21T00:11:48.894Z,929.1
2017-02-21T00:12:08.666Z,929.14
2017-02-21T00:12:27.837Z,929.05
2017-02-21T00:12:47.605Z,929.06
2017-02-21T00:13:06.804Z,929.05
2017-02-21T00:13:26.592Z,928.98
2017-02-21T00:13:46.387Z,929.08
2017-02-21T00:14:06.128Z,929.05
2017-02-21T00:14:25.384Z,929.05
2017-02-21T00:14:44.515Z,928.96
2017-02-21T00:15:04.248Z,929.04
2017-02-21T00:15:24.047Z,929.03
2017-02-21T00:15:43.232Z,929
2017-02-21T00:16:02.997Z,928.99
2017-02-21T00:16:22.140Z,929
2017-02-21T00:16:41.918Z,929.01
2017-02-21T00:17:01.115Z,929.02
2017-02-21T00:17:20.842Z,929
2017-02-21T00:17:40.624Z,929.02
2017-02-21T00:18:00.380Z,929.01
2017-02-21T00:18:20.119Z,928.98
2017-02-21T00:18:39.293Z,928.99
2017-02-21T00:18:59.034Z,929
2017-02-21T00:19:18.786Z,929.01
2017-02-21T00:19:38.522Z,929.02
2017-02-21T00:19:57.700Z,928.99
2017-02-21T00:20:17.493Z,928.99
2017-02-21T00:20:36.644Z,928.98
2017-02-21T00:20:55.793Z,928.98
2017-02-21T00:21:15.551Z,928.98
2017-02-21T00:21:35.306Z,928.94
2017-02-21T00:21:55.077Z,929.01
2017-02-21T00:22:14.861Z,929.04
2017-02-21T00:22:34.592Z,929.03
2017-02-21T00:22:54.392Z,928.99
2017-02-21T00:23:14.181Z,928.99
2017-02-21T00:23:33.948Z,928.98
2017-02-21T00:23:53.721Z,928.98
2017-02-21T00:24:12.865Z,928.99
2017-02-21T00:24:32.738Z,929.01
2017-02-21T00:24:52.546Z,929.02
2017-02-21T00:25:12.521Z,929
2017-02-21T00:25:32.246Z,928.98
2017-02-21T00:25:52.014Z,928.98
2017-02-21T00:26:11.759Z,929
2017-02-21T00:26:31.539Z,929.01
2017-02-21T00:26:51.284Z,928.95
2017-02-21T00:27:10.432Z,928.89
2017-02-21T00:27:30.155Z,928.94
2017-02-21T00:27:49.906Z,928.96
2017-02-21T00:28:09.663Z,929
2017-02-21T00:28:29.437Z,928.99
2017-02-21T00:28:49.186Z,929
2017-02-21T00:29:08.312Z,928.92
2017-02-21T00:29:28.163Z,928.92
2017-02-21T00:29:47.913Z,929.02
2017-02-21T00:30:07.676Z,929.05
2017-02-21T00:30:26.801Z,929.02
2017-02-21T00:30:46.514Z,929.02
2017-02-21T00:31:06.261Z,929
2017-02-21T00:31:26.052Z,929.05
2017-02-21T00:31:45.828Z,929.05
2017-02-21T00:32:05.595Z,929.02
2017-02-21T00:32:24.772Z,929.05
2017-02-21T00:32:44.522Z,928.99
2017-02-21T00:33:04.256Z,928.99
2017-02-21T00:33:23.999Z,929.05
2017-02-21T00:33:43.121Z,929.07
2017-02-21T00:34:02.865Z,929.06
2017-02-21T00:34:22.025Z,929.07
2017-02-21T00:34:41.273Z,929.09
2017-02-21T00:35:00.992Z,929.12
2017-02-21T00:35:20.143Z,929.07
2017-02-21T00:35:39.284Z,929.12
2017-02-21T00:35:59.026Z,929.11
2017-02-21T00:36:18.777Z,929.09
2017-02-21T00:36:38.581Z,929.08
2017-02-21T00:36:58.361Z,929.12
2017-02-21T00:37:17.533Z,929.08
2017-02-21T00:37:37.282Z,929.14
2017-02-21T00:37:56.514Z,929.12
2017-02-21T00:38:15.677Z,929.16
2017-02-21T00:38:35.462Z,929.13
2017-02-21T00:38:54.588Z,929.1
2017-02-21T00:39:14.368Z,929.06
2017-02-21T00:39:34.143Z,929.06
2017-02-21T00:39:53.876Z,929.1
2017-02-21T00:40:13.040Z,929.08
2017-02-21T00:40:32.825Z,929.02
2017-02-21T00:40:52.544Z,929.01
2017-02-21T00:41:12.302Z,929.08
2017-02-21T00:41:32.017Z,929.1
2017-02-21T00:41:51.754Z,929.11
2017-02-21T00:42:10.894Z,929.03
2017-02-21T00:42:30.041Z,929.07
2017-02-21T00:42:49.808Z,929.05
2017-02-21T00:43:09.611Z,929.11
2017-02-21T00:43:28.794Z,929.09
2017-02-21T00:43:48.010Z,929.14
2017-02-21T00:44:07.733Z,929.11
2017-02-21T00:44:27.589Z,929.16
2017-02-21T00:44:47.294Z,929.07
2017-02-21T00:45:07.040Z,929.1
2017-02-21T00:45:26.808Z,929.07
2017-02-21T00:45:46.568Z,929.12
2017-02-21T00:46:06.304Z,929.13
2017-02-21T00:46:26.077Z,929.15
2017-02-21T00:46:45.868Z,929.15
2017-02-21T00:47:04.979Z,929.15
2017-02-21T00:47:24.760Z,929.18
2017-02-21T00:47:44.520Z,929.1
2017-02-21T00:48:04.273Z,929.17
2017-02-21T00:48:22.834Z,929.17
2017-02-21T00:48:42.594Z,929.17
2017-02-21T00:49:02.324Z,929.19
2017-02-21T00:49:21.478Z,929.19
2017-02-21T00:49:41.335Z,929.17
2017-02-21T00:50:01.058Z,929.19
2017-02-21T00:50:20.801Z,929.16
2017-02-21T00:50:39.960Z,929.16
2017-02-21T00:50:59.743Z,929.21
2017-02-21T00:51:19.500Z,929.21
2017-02-21T00:51:39.250Z,929.2
2017-02-21T00:51:58.992Z,929.17
2017-02-21T00:52:18.758Z,929.13
2017-02-21T00:52:37.888Z,929.12
2017-02-21T00:52:57.651Z,929.17
2017-02-21T00:53:16.818Z,929.15
2017-02-21T00:53:36.553Z,929.17
2017-02-21T00:53:56.244Z,929.16
2017-02-21T00:54:15.387Z,929.11
2017-02-21T00:54:35.314Z,929.12
2017-02-21T00:54:54.476Z,929.08
2017-02-21T00:55:14.213Z,929.05
2017-02-21T00:55:33.373Z,929.12
2017-02-21T00:55:53.117Z,929.09
2017-02-21T00:56:12.862Z,929.13
2017-02-21T00:56:32.025Z,929.15
2017-02-21T00:56:51.204Z,929.12
2017-02-21T00:57:10.948Z,929.14
2017-02-21T00:57:30.095Z,929.05
2017-02-21T00:57:49.800Z,929.1
2017-02-21T00:58:08.980Z,929.1
2017-02-21T00:58:28.702Z,929.09
2017-02-21T00:58:48.426Z,929.07
2017-02-21T00:59:07.562Z,929.12
2017-02-21T00:59:27.269Z,929.07
2017-02-21T00:59:47.029Z,929.08
2017-02-21T01:00:06.788Z,929.12
2017-02-21T01:00:26.557Z,929.08
2017-02-21T01:00:46.367Z,929.09
2017-02-21T01:01:06.094Z,929.04
2017-02-21T01:01:25.238Z,929.12
2017-02-21T01:01:45.023Z,929.07
2017-02-21T01:02:04.796Z,929.09
2017-02-21T01:02:24.565Z,929.1
2017-02-21T01:02:44.324Z,929.11
2017-02-21T01:03:04.085Z,929.13
2017-02-21T01:03:23.841Z,929.13
2017-02-21T01:03:43.592Z,929.11
2017-02-21T01:04:02.743Z,929.07
2017-02-21T01:04:21.931Z,929.06
2017-02-21T01:04:41.679Z,929.12
2017-02-21T01:05:00.850Z,929.1
2017-02-21T01:05:20.607Z,929.08
2017-02-21T01:05:40.370Z,929.09
2017-02-21T01:05:58.969Z,929.05
2017-02-21T01:06:18.793Z,929.05
2017-02-21T01:06:38.543Z,929.07
2017-02-21T01:06:58.294Z,929.04
2017-02-21T01:07:18.033Z,929.04
2017-02-21T01:07:37.151Z,929.07
2017-02-21T01:07:56.914Z,929.06
2017-02-21T01:08:16.646Z,929.07
2017-02-21T01:08:35.789Z,929.08
2017-02-21T01:08:54.911Z,929.04
2017-02-21T01:09:14.017Z,929.05
2017-02-21T01:09:33.780Z,929.06
2017-02-21T01:09:53.577Z,929.08
2017-02-21T01:10:13.363Z,929.05
2017-02-21T01:10:32.519Z,929.07
2017-02-21T01:10:52.253Z,929.03
2017-02-21T01:11:11.966Z,929.07
2017-02-21T01:11:31.143Z,929.06
2017-02-21T01:11:50.892Z,928.97
2017-02-21T01:12:10.671Z,929.05
2017-02-21T01:12:29.862Z,929.06
2017-02-21T01:12:49.602Z,929.06
2017-02-21T01:13:09.314Z,929.07
2017-02-21T01:13:28.445Z,929.05
2017-02-21T01:13:48.214Z,929.03
2017-02-21T01:14:07.975Z,929.03
2017-02-21T01:14:27.145Z,929.06
2017-02-21T01:14:46.318Z,929.08
2017-02-21T01:15:05.443Z,929.05
2017-02-21T01:15:24.585Z,929.07
2017-02-21T01:15:43.733Z,929.04
2017-02-21T01:16:02.857Z,929.07
2017-02-21T01:16:22.008Z,929.03
2017-02-21T01:16:41.748Z,929.05
2017-02-21T01:17:00.884Z,929.06
2017-02-21T01:17:20.664Z,929.06
2017-02-21T01:17:40.483Z,929.12
2017-02-21T01:18:00.308Z,929.09
2017-02-21T01:18:20.048Z,929.09
2017-02-21T01:18:39.230Z,929.19
2017-02-21T01:18:59.029Z,929.07
2017-02-21T01:19:19.729Z,929.1
2017-02-21T01:19:39.598Z,929.12
2017-02-21T01:19:59.382Z,929.1
2017-02-21T01:20:19.369Z,929.11
2017-02-21T01:20:39.138Z,929.13
2017-02-21T01:20:58.918Z,929.19
2017-02-21T01:21:18.674Z,929.12
2017-02-21T01:21:38.480Z,929.16
2017-02-21T01:21:58.313Z,929.2
2017-02-21T01:22:18.072Z,929.16
2017-02-21T01:22:37.237Z,929.12
2017-02-21T01:22:56.983Z,929.19
2017-02-21T01:23:16.716Z,929.12
2017-02-21T01:23:36.476Z,929.1
2017-02-21T01:23:56.255Z,929.15
2017-02-21T01:24:15.418Z,929.17
2017-02-21T01:24:34.648Z,929.12
2017-02-21T01:24:54.390Z,929.12
2017-02-21T01:25:14.107Z,929.15
2017-02-21T01:25:33.871Z,929.17
2017-02-21T01:25:53.686Z,929.19
2017-02-21T01:26:13.410Z,929.12
2017-02-21T01:26:33.199Z,929.17
2017-02-21T01:26:53.034Z,929.18
2017-02-21T01:27:12.187Z,929.12
2017-02-21T01:27:31.956Z,929.14
2017-02-21T01:27:51.107Z,929.18
2017-02-21T01:28:10.982Z,929.19
2017-02-21T01:28:30.795Z,929.17
2017-02-21T01:28:50.594Z,929.15
2017-02-21T01:29:10.392Z,929.17
2017-02-21T01:29:30.240Z,929.17
2017-02-21T01:29:49.979Z,929.13
2017-02-21T01:30:09.965Z,929.16
2017-02-21T01:30:29.677Z,929.05
2017-02-21T01:30:49.451Z,929.16
2017-02-21T01:31:09.210Z,929.17
2017-02-21T01:31:29.016Z,929.17
2017-02-21T01:31:48.171Z,929.16
2017-02-21T01:32:07.453Z,929.14
2017-02-21T01:32:26.019Z,929.16
2017-02-21T01:32:45.859Z,929.15
2017-02-21T01:33:05.671Z,929.1
2017-02-21T01:33:25.466Z,929.19
2017-02-21T01:33:44.624Z,929.19
2017-02-21T01:34:04.336Z,929.2
2017-02-21T01:34:23.576Z,929.16
2017-02-21T01:34:43.353Z,929.16
2017-02-21T01:35:03.085Z,929.18
2017-02-21T01:35:22.816Z,929.2
2017-02-21T01:35:42.632Z,929.22
2017-02-21T01:36:02.405Z,929.13
2017-02-21T01:36:22.195Z,929.14
2017-02-21T01:36:41.499Z,929.09
2017-02-21T01:37:00.689Z,929.17
2017-02-21T01:37:19.834Z,929.13
2017-02-21T01:37:39.591Z,929.15
2017-02-21T01:37:59.389Z,929.15
2017-02-21T01:38:19.128Z,929.07
2017-02-21T01:38:38.843Z,929.15
2017-02-21T01:38:58.571Z,929.06
2017-02-21T01:39:17.739Z,929.14
2017-02-21T01:39:37.128Z,929.12
2017-02-21T01:39:56.889Z,929
2017-02-21T01:40:16.013Z,929.14
2017-02-21T01:40:35.787Z,929.16
2017-02-21T01:40:55.561Z,929.18
2017-02-21T01:41:14.720Z,929.14
2017-02-21T01:41:34.474Z,929.12
2017-02-21T01:41:54.202Z,929.18
2017-02-21T01:42:13.380Z,929.17
2017-02-21T01:42:33.135Z,929.15
2017-02-21T01:42:52.928Z,929.16
2017-02-21T01:43:12.682Z,929.08
2017-02-21T01:43:32.465Z,929.14
2017-02-21T01:43:52.261Z,929.14
2017-02-21T01:44:12.102Z,929.11
2017-02-21T01:44:31.858Z,929.18
2017-02-21T01:44:51.601Z,929.18
2017-02-21T01:45:11.367Z,929.16
2017-02-21T01:45:30.558Z,929.15
2017-02-21T01:45:50.306Z,929.18
2017-02-21T01:46:10.049Z,929.17
2017-02-21T01:46:29.151Z,929.14
2017-02-21T01:46:48.885Z,929.15
2017-02-21T01:47:08.614Z,929.19
2017-02-21T01:47:27.737Z,929.17
2017-02-21T01:47:47.499Z,929.13
2017-02-21T01:48:07.234Z,929.16
2017-02-21T01:48:26.988Z,929.19
2017-02-21T01:48:46.764Z,929.2
2017-02-21T01:49:05.431Z,929.18
2017-02-21T01:49:24.559Z,929.13
2017-02-21T01:49:44.308Z,929.09
2017-02-21T01:50:04.045Z,929.12
2017-02-21T01:50:23.215Z,929.24
2017-02-21T01:50:42.327Z,929.22
2017-02-21T01:51:02.283Z,929.13
2017-02-21T01:51:22.038Z,929.12
2017-02-21T01:51:41.788Z,929.13
2017-02-21T01:52:01.559Z,929.21
2017-02-21T01:52:20.713Z,929.2
2017-02-21T01:52:40.515Z,929.23
2017-02-21T01:52:59.072Z,929.2
2017-02-21T01:53:18.846Z,929.25
2017-02-21T01:53:37.953Z,929.27
2017-02-21T01:53:57.093Z,929.21
2017-02-21T01:54:16.232Z,929.24
2017-02-21T01:54:35.968Z,929.17
2017-02-21T01:54:54.514Z,929.18
2017-02-21T01:55:14.263Z,929.22
2017-02-21T01:55:33.985Z,929.16
2017-02-21T01:55:53.751Z,929.13
2017-02-21T01:56:13.511Z,929.21
2017-02-21T01:56:33.250Z,929.21
2017-02-21T01:56:53.027Z,929.22
2017-02-21T01:57:12.754Z,929.23
2017-02-21T01:57:32.533Z,929.22
2017-02-21T01:57:51.692Z,929.25
2017-02-21T01:58:10.819Z,929.23
2017-02-21T01:58:29.960Z,929.25
2017-02-21T01:58:49.703Z,929.26
2017-02-21T01:59:09.442Z,929.26
2017-02-21T01:59:29.172Z,929.27
2017-02-21T01:59:48.932Z,929.28
2017-02-21T02:00:08.680Z,929.29
2017-02-21T02:00:28.392Z,929.28
2017-02-21T02:00:48.155Z,929.24
2017-02-21T02:01:07.333Z,929.26
2017-02-21T02:01:27.082Z,929.25
2017-02-21T02:01:46.792Z,929.25
2017-02-21T02:02:05.984Z,929.29
2017-02-21T02:02:25.172Z,929.19
2017-02-21T02:02:44.947Z,929.31
2017-02-21T02:03:04.167Z,929.28
2017-02-21T02:03:23.952Z,929.3
2017-02-21T02:03:43.754Z,929.27
2017-02-21T02:04:02.913Z,929.29
2017-02-21T02:04:22.691Z,929.26
2017-02-21T02:04:42.488Z,929.3
2017-02-21T02:05:01.630Z,929.28
2017-02-21T02:05:20.769Z,929.28
2017-02-21T02:05:39.921Z,929.34
2017-02-21T02:05:59.103Z,929.33
2017-02-21T02:06:18.895Z,929.34
2017-02-21T02:06:38.629Z,929.33
2017-02-21T02:06:58.389Z,929.3
2017-02-21T02:07:18.091Z,929.32
2017-02-21T02:07:37.871Z,929.3
2017-02-21T02:07:57.607Z,929.3
2017-02-21T02:08:17.431Z,929.34
2017-02-21T02:08:37.196Z,929.33
2017-02-21T02:08:56.971Z,929.34
2017-02-21T02:09:16.706Z,929.33
2017-02-21T02:09:36.590Z,929.29
2017-02-21T02:09:55.713Z,929.33
2017-02-21T02:10:15.685Z,929.33
2017-02-21T02:10:35.483Z,929.3
2017-02-21T02:10:55.254Z,929.31
2017-02-21T02:11:15.133Z,929.35
2017-02-21T02:11:34.865Z,929.32
2017-02-21T02:11:54.010Z,929.29
2017-02-21T02:12:13.146Z,929.29
2017-02-21T02:12:31.668Z,929.32
2017-02-21T02:12:51.456Z,929.34
2017-02-21T02:13:10.734Z,929.35
2017-02-21T02:13:29.905Z,929.23
2017-02-21T02:13:49.667Z,929.28
2017-02-21T02:14:09.408Z,929.3
2017-02-21T02:14:29.174Z,929.36
2017-02-21T02:14:48.320Z,929.32
2017-02-21T02:15:08.089Z,929.36
2017-02-21T02:15:27.818Z,929.36
2017-02-21T02:15:47.002Z,929.39
2017-02-21T02:16:06.822Z,929.36
2017-02-21T02:16:25.964Z,929.37
2017-02-21T02:16:45.120Z,929.37
2017-02-21T02:17:04.875Z,929.4
2017-02-21T02:17:24.655Z,929.33
2017-02-21T02:17:44.424Z,929.36
2017-02-21T02:18:04.184Z,929.33
2017-02-21T02:18:22.769Z,929.4
2017-02-21T02:18:42.504Z,929.38
2017-02-21T02:19:02.290Z,929.44
2017-02-21T02:19:22.028Z,929.37
2017-02-21T02:19:41.858Z,929.39
2017-02-21T02:20:00.994Z,929.45
2017-02-21T02:20:20.709Z,929.4
2017-02-21T02:20:40.414Z,929.42
2017-02-21T02:21:00.194Z,929.41
2017-02-21T02:21:19.932Z,929.43
2017-02-21T02:21:39.672Z,929.43
2017-02-21T02:21:59.408Z,929.39
2017-02-21T02:22:19.214Z,929.44
2017-02-21T02:22:38.948Z,929.46
2017-02-21T02:22:58.717Z,929.4
2017-02-21T02:23:18.456Z,929.36
2017-02-21T02:23:38.239Z,929.44
2017-02-21T02:23:57.980Z,929.43
2017-02-21T02:24:17.730Z,929.41
2017-02-21T02:24:37.462Z,929.46
2017-02-21T02:24:57.219Z,929.44
2017-02-21T02:25:16.344Z,929.41
2017-02-21T02:25:36.085Z,929.39
2017-02-21T02:25:55.230Z,929.41
2017-02-21T02:26:15.012Z,929.44
2017-02-21T02:26:34.773Z,929.47
2017-02-21T02:26:54.509Z,929.43
2017-02-21T02:27:14.259Z,929.42
2017-02-21T02:27:33.428Z,929.39
2017-02-21T02:27:52.597Z,929.39
2017-02-21T02:28:11.723Z,929.4
2017-02-21T02:28:31.437Z,929.39
2017-02-21T02:28:51.361Z,929.41
2017-02-21T02:29:11.131Z,929.44
2017-02-21T02:29:29.729Z,929.41
2017-02-21T02:29:49.441Z,929.43
2017-02-21T02:30:09.229Z,929.39
2017-02-21T02:30:28.402Z,929.35
2017-02-21T02:30:48.135Z,929.37
2017-02-21T02:31:07.312Z,929.39
2017-02-21T02:31:27.066Z,929.38
2017-02-21T02:31:46.830Z,929.35
2017-02-21T02:32:06.583Z,929.35
2017-02-21T02:32:25.774Z,929.36
2017-02-21T02:32:45.558Z,929.38
2017-02-21T02:33:05.293Z,929.36
2017-02-21T02:33:24.449Z,929.35
2017-02-21T02:33:44.199Z,929.33
2017-02-21T02:34:03.328Z,929.37
2017-02-21T02:34:23.194Z,929.29
2017-02-21T02:34:42.921Z,929.34
2017-02-21T02:35:02.668Z,929.35
2017-02-21T02:35:22.375Z,929.35
2017-02-21T02:35:41.504Z,929.34
2017-02-21T02:36:00.041Z,929.38
2017-02-21T02:36:19.818Z,929.35
2017-02-21T02:36:39.548Z,929.31
2017-02-21T02:36:59.282Z,929.35
2017-02-21T02:37:19.022Z,929.32
2017-02-21T02:37:38.752Z,929.29
2017-02-21T02:37:57.894Z,929.3
2017-02-21T02:38:17.602Z,929.28
2017-02-21T02:38:37.301Z,929.32
2017-02-21T02:38:57.063Z,929.32
2017-02-21T02:39:16.824Z,929.3
2017-02-21T02:39:36.649Z,929.36
2017-02-21T02:39:55.769Z,929.29
2017-02-21T02:40:16.435Z,929.3
2017-02-21T02:40:36.414Z,929.33
2017-02-21T02:40:56.139Z,929.29
2017-02-21T02:41:15.269Z,929.32
2017-02-21T02:41:35.035Z,929.31
2017-02-21T02:41:54.790Z,929.29
2017-02-21T02:42:13.554Z,929.28
2017-02-21T02:42:33.299Z,929.27
2017-02-21T02:42:53.044Z,929.26
2017-02-21T02:43:12.212Z,929.26
2017-02-21T02:43:31.960Z,929.27
2017-02-21T02:43:51.676Z,929.28
2017-02-21T02:44:10.849Z,929.27
2017-02-21T02:44:30.749Z,929.26
2017-02-21T02:44:49.899Z,929.25
2017-02-21T02:45:09.615Z,929.27
2017-02-21T02:45:29.366Z,929.26
2017-02-21T02:45:48.499Z,929.22
2017-02-21T02:46:08.241Z,929.23
2017-02-21T02:46:28.024Z,929.26
2017-02-21T02:46:47.788Z,929.3
2017-02-21T02:47:07.643Z,929.28
2017-02-21T02:47:26.870Z,929.25
2017-02-21T02:47:46.671Z,929.27
2017-02-21T02:48:06.600Z,929.25
2017-02-21T02:48:25.731Z,929.27
2017-02-21T02:48:45.514Z,929.27
2017-02-21T02:49:04.665Z,929.23
2017-02-21T02:49:23.197Z,929.24
2017-02-21T02:49:42.947Z,929.22
2017-02-21T02:50:02.116Z,929.22
2017-02-21T02:50:22.024Z,929.23
2017-02-21T02:50:41.782Z,929.19
2017-02-21T02:51:00.951Z,929.24
2017-02-21T02:51:22.503Z,929.26
2017-02-21T02:51:42.365Z,929.21
2017-02-21T02:52:02.368Z,929.33
2017-02-21T02:52:22.249Z,929.15
2017-02-21T02:52:42.041Z,929.27
2017-02-21T02:53:01.872Z,929.23
2017-02-21T02:53:21.722Z,929.24
2017-02-21T02:53:41.543Z,929.19
2017-02-21T02:54:01.291Z,929.15
2017-02-21T02:54:21.054Z,929.2
2017-02-21T02:54:40.841Z,929.17
2017-02-21T02:55:00.577Z,929.21
2017-02-21T02:55:20.318Z,929.18
2017-02-21T02:55:40.100Z,929.19
2017-02-21T02:55:59.883Z,929.18
2017-02-21T02:56:19.660Z,929.2
2017-02-21T02:56:39.467Z,929.19
2017-02-21T02:56:59.283Z,929.17
2017-02-21T02:57:19.134Z,929.21
2017-02-21T02:57:38.863Z,929.12
2017-02-21T02:57:58.025Z,929.15
2017-02-21T02:58:17.105Z,929.2
2017-02-21T02:58:36.259Z,929.18
2017-02-21T02:58:55.992Z,929.13
2017-02-21T02:59:15.836Z,929.13
2017-02-21T02:59:35.586Z,929.14
2017-02-21T02:59:55.349Z,929.16
2017-02-21T03:00:15.092Z,929.15
2017-02-21T03:00:34.867Z,929.19
2017-02-21T03:00:54.694Z,929.15
2017-02-21T03:01:13.872Z,929.18
2017-02-21T03:01:33.695Z,929.16
2017-02-21T03:01:52.847Z,929.16
2017-02-21T03:02:11.996Z,929.17
2017-02-21T03:02:31.729Z,929.15
2017-02-21T03:02:50.918Z,929.16
2017-02-21T03:03:10.710Z,929.18
2017-02-21T03:03:29.968Z,929.2
2017-02-21T03:03:49.762Z,929.14
2017-02-21T03:04:09.494Z,929.16
2017-02-21T03:04:29.310Z,929.13
2017-02-21T03:04:49.123Z,929.15
2017-02-21T03:05:07.735Z,929.13
2017-02-21T03:05:26.927Z,929.14
2017-02-21T03:05:46.665Z,929.12
2017-02-21T03:06:06.406Z,929.14
2017-02-21T03:06:26.187Z,929.15
2017-02-21T03:06:45.947Z,929.17
2017-02-21T03:07:04.505Z,929.13
2017-02-21T03:07:24.259Z,929.15
2017-02-21T03:07:43.416Z,929.14
2017-02-21T03:08:02.582Z,929.14
2017-02-21T03:08:22.320Z,929.12
2017-02-21T03:08:42.071Z,929.15
2017-02-21T03:09:01.962Z,929.1
2017-02-21T03:09:21.267Z,929.14
2017-02-21T03:09:41.113Z,929.09
2017-02-21T03:10:00.898Z,929.12
2017-02-21T03:10:20.719Z,929.12
2017-02-21T03:10:40.481Z,929.09
2017-02-21T03:11:00.250Z,929.11
2017-02-21T03:11:19.395Z,929.09
2017-02-21T03:11:39.150Z,929.12
2017-02-21T03:11:58.940Z,929.07
2017-02-21T03:12:18.131Z,929.08
2017-02-21T03:12:37.885Z,929.05
2017-02-21T03:12:57.647Z,929.06
2017-02-21T03:13:31.284Z,929.11
2017-02-21T03:13:51.052Z,929.08
2017-02-21T03:14:10.848Z,929.08
2017-02-21T03:14:30.031Z,929.07
2017-02-21T03:14:49.791Z,929.07
2017-02-21T03:15:08.959Z,929.07
2017-02-21T03:15:28.688Z,929.05
2017-02-21T03:15:48.389Z,929.09
2017-02-21T03:16:08.132Z,929.05
2017-02-21T03:16:26.621Z,929.06
2017-02-21T03:16:46.403Z,929.06
2017-02-21T03:17:06.204Z,929.02
2017-02-21T03:17:25.997Z,929.05
2017-02-21T03:17:45.725Z,929.03
2017-02-21T03:18:05.471Z,929.02
2017-02-21T03:18:24.624Z,929.08
2017-02-21T03:18:43.808Z,929.03
2017-02-21T03:19:03.583Z,929.03
2017-02-21T03:19:23.400Z,929.04
2017-02-21T03:19:43.180Z,929.01
2017-02-21T03:20:02.936Z,929.04
2017-02-21T03:20:22.099Z,929.04
2017-02-21T03:20:41.849Z,929.06
2017-02-21T03:21:00.996Z,929.02
2017-02-21T03:21:20.166Z,929.03
2017-02-21T03:21:39.939Z,929.05
2017-02-21T03:21:59.721Z,929.05
2017-02-21T03:22:19.476Z,929.01
2017-02-21T03:22:39.230Z,929
2017-02-21T03:22:58.986Z,929.02
2017-02-21T03:23:18.728Z,929
2017-02-21T03:23:37.884Z,929.04
2017-02-21T03:23:57.651Z,929.02
2017-02-21T03:24:17.390Z,929.07
2017-02-21T03:24:37.161Z,929.03
2017-02-21T03:24:56.882Z,929
2017-02-21T03:25:16.646Z,929.02
2017-02-21T03:25:36.437Z,928.99
2017-02-21T03:25:56.162Z,929.02
2017-02-21T03:26:15.342Z,929.02
2017-02-21T03:26:35.141Z,929.02
2017-02-21T03:26:54.368Z,929
2017-02-21T03:27:14.087Z,929.02
2017-02-21T03:27:33.823Z,929.01
2017-02-21T03:27:53.589Z,928.98
2017-02-21T03:28:13.350Z,928.97
2017-02-21T03:28:33.121Z,928.96
2017-02-21T03:28:52.841Z,928.97
2017-02-21T03:29:12.585Z,928.94
2017-02-21T03:29:31.763Z,928.97
2017-02-21T03:29:50.946Z,928.97
2017-02-21T03:30:10.107Z,928.94
2017-02-21T03:30:29.283Z,928.92
2017-02-21T03:30:49.075Z,928.93
2017-02-21T03:31:07.682Z,928.9
2017-02-21T03:31:27.445Z,928.9
2017-02-21T03:31:46.661Z,928.9
2017-02-21T03:32:06.367Z,928.92
2017-02-21T03:32:26.128Z,928.92
2017-02-21T03:32:45.290Z,928.94
2017-02-21T03:33:05.052Z,928.88
2017-02-21T03:33:23.595Z,928.91
2017-02-21T03:33:43.340Z,928.88
2017-02-21T03:34:03.049Z,928.88
2017-02-21T03:34:22.749Z,928.84
2017-02-21T03:34:42.495Z,928.9
2017-02-21T03:35:01.030Z,928.9
2017-02-21T03:35:20.805Z,928.88
2017-02-21T03:35:39.964Z,928.88
2017-02-21T03:35:59.731Z,928.88
2017-02-21T03:36:19.490Z,928.9
2017-02-21T03:36:39.219Z,928.91
2017-02-21T03:36:58.976Z,928.86
2017-02-21T03:37:18.113Z,928.87
2017-02-21T03:37:36.658Z,928.88
2017-02-21T03:37:55.777Z,928.88
2017-02-21T03:38:15.589Z,928.9
2017-02-21T03:38:35.355Z,928.88
2017-02-21T03:38:54.551Z,928.87
2017-02-21T03:39:14.309Z,928.87
2017-02-21T03:39:34.055Z,928.89
2017-02-21T03:39:53.781Z,928.86
2017-02-21T03:40:27.406Z,928.89
2017-02-21T03:40:47.182Z,928.88
2017-02-21T03:41:06.945Z,928.86
2017-02-21T03:41:26.063Z,928.84
2017-02-21T03:41:45.219Z,928.88
2017-02-21T03:42:04.365Z,928.88
2017-02-21T03:42:23.553Z,928.87
2017-02-21T03:42:43.360Z,928.88
2017-02-21T03:43:02.530Z,928.91
2017-02-21T03:43:22.326Z,928.86
2017-02-21T03:43:42.109Z,928.87
2017-02-21T03:44:01.868Z,928.88
2017-02-21T03:44:21.638Z,928.85
2017-02-21T03:44:41.416Z,928.85
2017-02-21T03:45:00.638Z,928.86
2017-02-21T03:45:19.789Z,928.88
2017-02-21T03:45:39.503Z,928.89
2017-02-21T03:45:59.244Z,928.88
2017-02-21T03:46:18.988Z,928.92
2017-02-21T03:46:38.766Z,928.91
2017-02-21T03:46:57.924Z,928.87
2017-02-21T03:47:17.024Z,928.88
2017-02-21T03:47:36.816Z,928.87
2017-02-21T03:47:55.970Z,928.9
2017-02-21T03:48:14.527Z,928.86
2017-02-21T03:48:34.264Z,928.87
2017-02-21T03:48:54.016Z,928.87
2017-02-21T03:49:13.737Z,928.88
2017-02-21T03:49:33.480Z,928.86
2017-02-21T03:49:53.207Z,928.88
2017-02-21T03:50:12.328Z,928.89
2017-02-21T03:50:32.061Z,928.86
2017-02-21T03:50:51.153Z,928.85
2017-02-21T03:51:10.904Z,928.87
2017-02-21T03:51:30.050Z,928.88
2017-02-21T03:51:49.798Z,928.85
2017-02-21T03:52:09.592Z,928.83
2017-02-21T03:52:28.736Z,928.88
2017-02-21T03:52:48.494Z,928.82
2017-02-21T03:53:07.686Z,928.82
2017-02-21T03:53:27.424Z,928.82
2017-02-21T03:53:47.203Z,928.84
2017-02-21T03:54:06.951Z,928.81
2017-02-21T03:54:26.709Z,928.8
2017-02-21T03:54:45.849Z,928.84
2017-02-21T03:55:04.974Z,928.84
2017-02-21T03:55:24.750Z,928.79
2017-02-21T03:55:43.913Z,928.83
2017-02-21T03:56:02.490Z,928.83
2017-02-21T03:56:21.692Z,928.84
2017-02-21T03:56:41.419Z,928.82
2017-02-21T03:57:00.545Z,928.83
2017-02-21T03:57:20.313Z,928.8
2017-02-21T03:57:40.094Z,928.81
2017-02-21T03:57:59.844Z,928.79
2017-02-21T03:58:19.645Z,928.76
2017-02-21T03:58:39.398Z,928.82
2017-02-21T03:58:59.190Z,928.79
2017-02-21T03:59:18.395Z,928.78
2017-02-21T03:59:38.133Z,928.78
2017-02-21T03:59:57.869Z,928.8
2017-02-21T04:00:16.425Z,928.76
2017-02-21T04:00:36.393Z,928.76
2017-02-21T04:00:55.549Z,928.75
2017-02-21T04:01:14.723Z,928.76
2017-02-21T04:01:34.430Z,928.77
2017-02-21T04:01:53.588Z,928.74
2017-02-21T04:02:13.341Z,928.78
2017-02-21T04:02:33.120Z,928.78
2017-02-21T04:02:52.873Z,928.76
2017-02-21T04:03:12.652Z,928.79
2017-02-21T04:03:32.434Z,928.75
2017-02-21T04:03:52.193Z,928.78
2017-02-21T04:04:11.935Z,928.76
2017-02-21T04:04:31.744Z,928.77
2017-02-21T04:04:50.881Z,928.74
2017-02-21T04:05:10.610Z,928.77
2017-02-21T04:05:30.353Z,928.78